sensor_id;sensor_type;location;lat;lon;timestamp;P1;durP1;ratioP1;P2;durP2;ratioP2
9934;SDS011;5006;41.828;23.478;2022-10-16T00:00:45;0.85;;;0.50;;
9934;SDS011;5006;41.828;23.478;2022-10-16T00:01:50;2.60;;;0.57;;
9934;SDS011;5006;41.828;23.478;2022-10-16T00:02:55;0.22;;;0.22;;
9934;SDS011;5006;41.828;23.478;2022-10-16T00:04:02;0.50;;;0.50;;
9934;SDS011;5006;41.828;23.478;2022-10-16T00:05:07;0.30;;;0.30;;
9934;SDS011;5006;41.828;23.478;2022-10-16T00:06:13;0.10;;;0.10;;
9934;SDS011;5006;41.828;23.478;2022-10-16T00:07:18;0.10;;;0.10;;
9934;SDS011;5006;41.828;23.478;2022-10-16T00:08:24;0.10;;;0.10;;
9934;SDS011;5006;41.828;23.478;2022-10-16T00:09:29;0.10;;;0.10;;
9934;SDS011;5006;41.828;23.478;2022-10-16T00:10:34;0.25;;;0.25;;
9934;SDS011;5006;41.828;23.478;2022-10-16T00:11:39;0.30;;;0.30;;
9934;SDS011;5006;41.828;23.478;2022-10-16T00:12:45;0.20;;;0.20;;
9934;SDS011;5006;41.828;23.478;2022-10-16T00:13:50;0.20;;;0.20;;
9934;SDS011;5006;41.828;23.478;2022-10-16T00:15:00;0.10;;;0.10;;
9934;SDS011;5006;41.828;23.478;2022-10-16T00:16:05;0.95;;;0.30;;
9934;SDS011;5006;41.828;23.478;2022-10-16T00:17:12;0.57;;;0.57;;
9934;SDS011;5006;41.828;23.478;2022-10-16T00:18:16;0.20;;;0.20;;
9934;SDS011;5006;41.828;23.478;2022-10-16T00:19:22;0.85;;;0.68;;
9934;SDS011;5006;41.828;23.478;2022-10-16T00:20:27;0.38;;;0.38;;
9934;SDS011;5006;41.828;23.478;2022-10-16T00:21:53;0.20;;;0.20;;
9934;SDS011;5006;41.828;23.478;2022-10-16T00:23:18;0.30;;;0.30;;
9934;SDS011;5006;41.828;23.478;2022-10-16T00:24:22;0.50;;;0.50;;
9934;SDS011;5006;41.828;23.478;2022-10-16T00:25:29;0.22;;;0.22;;
9934;SDS011;5006;41.828;23.478;2022-10-16T00:26:36;0.65;;;0.65;;
9934;SDS011;5006;41.828;23.478;2022-10-16T00:27:43;0.47;;;0.47;;
9934;SDS011;5006;41.828;23.478;2022-10-16T00:28:49;1.40;;;0.50;;
9934;SDS011;5006;41.828;23.478;2022-10-16T00:29:55;0.60;;;0.60;;
9934;SDS011;5006;41.828;23.478;2022-10-16T00:31:03;0.75;;;0.50;;
9934;SDS011;5006;41.828;23.478;2022-10-16T00:32:10;5.63;;;0.55;;
9934;SDS011;5006;41.828;23.478;2022-10-16T00:33:15;0.30;;;0.30;;
9934;SDS011;5006;41.828;23.478;2022-10-16T00:34:20;0.52;;;0.52;;
9934;SDS011;5006;41.828;23.478;2022-10-16T00:35:25;0.35;;;0.35;;
9934;SDS011;5006;41.828;23.478;2022-10-16T00:36:30;0.10;;;0.10;;
9934;SDS011;5006;41.828;23.478;2022-10-16T00:37:36;0.38;;;0.38;;
9934;SDS011;5006;41.828;23.478;2022-10-16T00:38:41;0.10;;;0.10;;
9934;SDS011;5006;41.828;23.478;2022-10-16T00:39:47;0.20;;;0.20;;
9934;SDS011;5006;41.828;23.478;2022-10-16T00:40:52;0.30;;;0.30;;
9934;SDS011;5006;41.828;23.478;2022-10-16T00:41:58;0.20;;;0.20;;
9934;SDS011;5006;41.828;23.478;2022-10-16T00:43:07;0.20;;;0.20;;
9934;SDS011;5006;41.828;23.478;2022-10-16T00:45:49;0.43;;;0.43;;
9934;SDS011;5006;41.828;23.478;2022-10-16T00:46:55;0.95;;;0.57;;
9934;SDS011;5006;41.828;23.478;2022-10-16T00:48:01;0.20;;;0.20;;
9934;SDS011;5006;41.828;23.478;2022-10-16T00:49:06;0.20;;;0.20;;
9934;SDS011;5006;41.828;23.478;2022-10-16T00:50:16;1.35;;;0.68;;
9934;SDS011;5006;41.828;23.478;2022-10-16T00:51:28;0.30;;;0.30;;
9934;SDS011;5006;41.828;23.478;2022-10-16T00:52:37;0.57;;;0.38;;
9934;SDS011;5006;41.828;23.478;2022-10-16T00:53:46;0.20;;;0.20;;
9934;SDS011;5006;41.828;23.478;2022-10-16T00:54:52;0.40;;;0.40;;
9934;SDS011;5006;41.828;23.478;2022-10-16T00:55:58;0.50;;;0.50;;
9934;SDS011;5006;41.828;23.478;2022-10-16T00:57:05;0.30;;;0.28;;
9934;SDS011;5006;41.828;23.478;2022-10-16T00:58:11;0.45;;;0.45;;
9934;SDS011;5006;41.828;23.478;2022-10-16T00:59:18;0.10;;;0.10;;
9934;SDS011;5006;41.828;23.478;2022-10-16T01:00:25;0.15;;;0.15;;
9934;SDS011;5006;41.828;23.478;2022-10-16T01:01:31;0.20;;;0.20;;
9934;SDS011;5006;41.828;23.478;2022-10-16T01:02:38;0.10;;;0.10;;
9934;SDS011;5006;41.828;23.478;2022-10-16T01:03:44;0.20;;;0.20;;
9934;SDS011;5006;41.828;23.478;2022-10-16T01:04:50;0.20;;;0.20;;
9934;SDS011;5006;41.828;23.478;2022-10-16T01:06:05;0.20;;;0.20;;
9934;SDS011;5006;41.828;23.478;2022-10-16T01:07:30;0.10;;;0.10;;
9934;SDS011;5006;41.828;23.478;2022-10-16T01:08:47;0.20;;;0.20;;
9934;SDS011;5006;41.828;23.478;2022-10-16T01:10:06;0.13;;;0.13;;
9934;SDS011;5006;41.828;23.478;2022-10-16T01:11:17;0.20;;;0.20;;
9934;SDS011;5006;41.828;23.478;2022-10-16T01:12:32;0.20;;;0.20;;
9934;SDS011;5006;41.828;23.478;2022-10-16T01:13:46;0.10;;;0.10;;
9934;SDS011;5006;41.828;23.478;2022-10-16T01:14:58;0.10;;;0.10;;
9934;SDS011;5006;41.828;23.478;2022-10-16T01:16:11;0.20;;;0.20;;
9934;SDS011;5006;41.828;23.478;2022-10-16T01:17:21;0.30;;;0.30;;
9934;SDS011;5006;41.828;23.478;2022-10-16T01:18:33;0.20;;;0.20;;
9934;SDS011;5006;41.828;23.478;2022-10-16T01:19:50;0.20;;;0.20;;
9934;SDS011;5006;41.828;23.478;2022-10-16T01:21:08;0.10;;;0.10;;
9934;SDS011;5006;41.828;23.478;2022-10-16T01:22:15;0.30;;;0.30;;
9934;SDS011;5006;41.828;23.478;2022-10-16T01:23:25;0.20;;;0.20;;
9934;SDS011;5006;41.828;23.478;2022-10-16T01:24:38;0.20;;;0.20;;
9934;SDS011;5006;41.828;23.478;2022-10-16T01:27:35;0.55;;;0.55;;
9934;SDS011;5006;41.828;23.478;2022-10-16T01:28:44;0.10;;;0.10;;
9934;SDS011;5006;41.828;23.478;2022-10-16T01:29:54;0.10;;;0.10;;
9934;SDS011;5006;41.828;23.478;2022-10-16T01:31:05;0.10;;;0.10;;
9934;SDS011;5006;41.828;23.478;2022-10-16T01:32:25;0.20;;;0.20;;
9934;SDS011;5006;41.828;23.478;2022-10-16T01:33:38;0.20;;;0.20;;
9934;SDS011;5006;41.828;23.478;2022-10-16T01:34:47;0.20;;;0.20;;
9934;SDS011;5006;41.828;23.478;2022-10-16T01:35:58;0.20;;;0.20;;
9934;SDS011;5006;41.828;23.478;2022-10-16T01:37:07;0.20;;;0.20;;
9934;SDS011;5006;41.828;23.478;2022-10-16T01:38:19;0.10;;;0.10;;
9934;SDS011;5006;41.828;23.478;2022-10-16T01:39:29;0.20;;;0.20;;
9934;SDS011;5006;41.828;23.478;2022-10-16T01:40:39;0.20;;;0.20;;
9934;SDS011;5006;41.828;23.478;2022-10-16T01:41:48;0.20;;;0.20;;
9934;SDS011;5006;41.828;23.478;2022-10-16T01:43:02;1.05;;;1.05;;
9934;SDS011;5006;41.828;23.478;2022-10-16T01:44:10;0.30;;;0.30;;
9934;SDS011;5006;41.828;23.478;2022-10-16T01:45:21;0.20;;;0.20;;
9934;SDS011;5006;41.828;23.478;2022-10-16T01:46:26;0.10;;;0.10;;
9934;SDS011;5006;41.828;23.478;2022-10-16T01:47:33;0.20;;;0.20;;
9934;SDS011;5006;41.828;23.478;2022-10-16T01:48:40;0.30;;;0.30;;
9934;SDS011;5006;41.828;23.478;2022-10-16T01:49:46;0.20;;;0.20;;
9934;SDS011;5006;41.828;23.478;2022-10-16T01:50:52;0.20;;;0.20;;
9934;SDS011;5006;41.828;23.478;2022-10-16T01:52:07;0.20;;;0.20;;
9934;SDS011;5006;41.828;23.478;2022-10-16T01:53:16;0.20;;;0.20;;
9934;SDS011;5006;41.828;23.478;2022-10-16T01:54:22;0.20;;;0.20;;
9934;SDS011;5006;41.828;23.478;2022-10-16T01:55:30;0.20;;;0.20;;
9934;SDS011;5006;41.828;23.478;2022-10-16T01:56:39;0.30;;;0.30;;
9934;SDS011;5006;41.828;23.478;2022-10-16T01:57:46;0.20;;;0.20;;
9934;SDS011;5006;41.828;23.478;2022-10-16T01:58:56;0.20;;;0.20;;
9934;SDS011;5006;41.828;23.478;2022-10-16T02:00:06;0.30;;;0.30;;
9934;SDS011;5006;41.828;23.478;2022-10-16T02:01:17;0.20;;;0.20;;
9934;SDS011;5006;41.828;23.478;2022-10-16T02:02:24;0.30;;;0.30;;
9934;SDS011;5006;41.828;23.478;2022-10-16T02:03:34;0.20;;;0.20;;
9934;SDS011;5006;41.828;23.478;2022-10-16T02:04:42;0.52;;;0.52;;
9934;SDS011;5006;41.828;23.478;2022-10-16T02:05:51;0.20;;;0.20;;
9934;SDS011;5006;41.828;23.478;2022-10-16T02:06:58;0.25;;;0.22;;
9934;SDS011;5006;41.828;23.478;2022-10-16T02:08:04;0.38;;;0.38;;
9934;SDS011;5006;41.828;23.478;2022-10-16T02:09:09;0.20;;;0.20;;
9934;SDS011;5006;41.828;23.478;2022-10-16T02:10:16;0.25;;;0.25;;
9934;SDS011;5006;41.828;23.478;2022-10-16T02:11:22;0.20;;;0.20;;
9934;SDS011;5006;41.828;23.478;2022-10-16T02:12:28;0.20;;;0.20;;
9934;SDS011;5006;41.828;23.478;2022-10-16T02:13:37;0.15;;;0.15;;
9934;SDS011;5006;41.828;23.478;2022-10-16T02:14:50;0.20;;;0.20;;
9934;SDS011;5006;41.828;23.478;2022-10-16T02:15:54;0.20;;;0.20;;
9934;SDS011;5006;41.828;23.478;2022-10-16T02:17:00;0.20;;;0.20;;
9934;SDS011;5006;41.828;23.478;2022-10-16T02:18:05;0.20;;;0.20;;
9934;SDS011;5006;41.828;23.478;2022-10-16T02:19:12;0.20;;;0.20;;
9934;SDS011;5006;41.828;23.478;2022-10-16T02:20:18;0.10;;;0.10;;
9934;SDS011;5006;41.828;23.478;2022-10-16T02:21:31;0.10;;;0.10;;
9934;SDS011;5006;41.828;23.478;2022-10-16T02:22:43;0.22;;;0.22;;
9934;SDS011;5006;41.828;23.478;2022-10-16T02:23:54;0.20;;;0.20;;
9934;SDS011;5006;41.828;23.478;2022-10-16T02:25:04;0.28;;;0.28;;
9934;SDS011;5006;41.828;23.478;2022-10-16T02:26:13;0.30;;;0.30;;
9934;SDS011;5006;41.828;23.478;2022-10-16T02:27:24;0.20;;;0.20;;
9934;SDS011;5006;41.828;23.478;2022-10-16T02:28:35;0.30;;;0.30;;
9934;SDS011;5006;41.828;23.478;2022-10-16T02:29:47;0.20;;;0.20;;
9934;SDS011;5006;41.828;23.478;2022-10-16T02:30:58;0.52;;;0.52;;
9934;SDS011;5006;41.828;23.478;2022-10-16T02:32:08;0.82;;;0.82;;
9934;SDS011;5006;41.828;23.478;2022-10-16T02:33:17;0.20;;;0.20;;
9934;SDS011;5006;41.828;23.478;2022-10-16T02:34:26;0.20;;;0.20;;
9934;SDS011;5006;41.828;23.478;2022-10-16T02:35:33;0.20;;;0.20;;
9934;SDS011;5006;41.828;23.478;2022-10-16T02:36:39;0.10;;;0.10;;
9934;SDS011;5006;41.828;23.478;2022-10-16T02:37:46;0.20;;;0.20;;
9934;SDS011;5006;41.828;23.478;2022-10-16T02:38:52;0.20;;;0.20;;
9934;SDS011;5006;41.828;23.478;2022-10-16T02:39:58;0.20;;;0.20;;
9934;SDS011;5006;41.828;23.478;2022-10-16T02:41:04;0.20;;;0.20;;
9934;SDS011;5006;41.828;23.478;2022-10-16T02:42:09;0.20;;;0.20;;
9934;SDS011;5006;41.828;23.478;2022-10-16T02:43:16;0.45;;;0.45;;
9934;SDS011;5006;41.828;23.478;2022-10-16T02:44:22;0.30;;;0.30;;
9934;SDS011;5006;41.828;23.478;2022-10-16T02:45:29;0.43;;;0.43;;
9934;SDS011;5006;41.828;23.478;2022-10-16T02:46:34;0.47;;;0.47;;
9934;SDS011;5006;41.828;23.478;2022-10-16T02:47:40;0.30;;;0.30;;
9934;SDS011;5006;41.828;23.478;2022-10-16T02:48:44;0.20;;;0.20;;
9934;SDS011;5006;41.828;23.478;2022-10-16T02:49:50;0.20;;;0.20;;
9934;SDS011;5006;41.828;23.478;2022-10-16T02:50:54;0.50;;;0.50;;
9934;SDS011;5006;41.828;23.478;2022-10-16T02:52:01;0.40;;;0.40;;
9934;SDS011;5006;41.828;23.478;2022-10-16T02:53:06;0.60;;;0.47;;
9934;SDS011;5006;41.828;23.478;2022-10-16T02:54:12;0.20;;;0.20;;
9934;SDS011;5006;41.828;23.478;2022-10-16T02:55:17;0.20;;;0.20;;
9934;SDS011;5006;41.828;23.478;2022-10-16T02:56:22;0.40;;;0.40;;
9934;SDS011;5006;41.828;23.478;2022-10-16T02:57:28;0.40;;;0.40;;
9934;SDS011;5006;41.828;23.478;2022-10-16T02:58:33;0.43;;;0.43;;
9934;SDS011;5006;41.828;23.478;2022-10-16T02:59:38;0.20;;;0.20;;
9934;SDS011;5006;41.828;23.478;2022-10-16T03:00:45;0.20;;;0.20;;
9934;SDS011;5006;41.828;23.478;2022-10-16T03:01:50;0.20;;;0.20;;
9934;SDS011;5006;41.828;23.478;2022-10-16T03:02:55;0.75;;;0.75;;
9934;SDS011;5006;41.828;23.478;2022-10-16T03:04:00;0.20;;;0.20;;
9934;SDS011;5006;41.828;23.478;2022-10-16T03:05:06;0.50;;;0.50;;
9934;SDS011;5006;41.828;23.478;2022-10-16T03:06:11;0.20;;;0.20;;
9934;SDS011;5006;41.828;23.478;2022-10-16T03:07:16;0.22;;;0.22;;
9934;SDS011;5006;41.828;23.478;2022-10-16T03:08:21;0.10;;;0.10;;
9934;SDS011;5006;41.828;23.478;2022-10-16T03:09:29;0.20;;;0.20;;
9934;SDS011;5006;41.828;23.478;2022-10-16T03:10:34;0.20;;;0.20;;
9934;SDS011;5006;41.828;23.478;2022-10-16T03:11:40;0.35;;;0.35;;
9934;SDS011;5006;41.828;23.478;2022-10-16T03:12:45;0.70;;;0.60;;
9934;SDS011;5006;41.828;23.478;2022-10-16T03:13:50;0.20;;;0.20;;
9934;SDS011;5006;41.828;23.478;2022-10-16T03:14:56;0.20;;;0.20;;
9934;SDS011;5006;41.828;23.478;2022-10-16T03:16:02;0.20;;;0.20;;
9934;SDS011;5006;41.828;23.478;2022-10-16T03:17:08;0.20;;;0.20;;
9934;SDS011;5006;41.828;23.478;2022-10-16T03:18:12;0.20;;;0.20;;
9934;SDS011;5006;41.828;23.478;2022-10-16T03:19:18;0.20;;;0.20;;
9934;SDS011;5006;41.828;23.478;2022-10-16T03:20:23;0.45;;;0.45;;
9934;SDS011;5006;41.828;23.478;2022-10-16T03:21:29;0.20;;;0.20;;
9934;SDS011;5006;41.828;23.478;2022-10-16T03:22:34;0.20;;;0.20;;
9934;SDS011;5006;41.828;23.478;2022-10-16T03:23:39;0.20;;;0.20;;
9934;SDS011;5006;41.828;23.478;2022-10-16T03:24:44;0.40;;;0.40;;
9934;SDS011;5006;41.828;23.478;2022-10-16T03:25:50;0.20;;;0.20;;
9934;SDS011;5006;41.828;23.478;2022-10-16T03:26:56;0.20;;;0.20;;
9934;SDS011;5006;41.828;23.478;2022-10-16T03:28:01;0.88;;;0.63;;
9934;SDS011;5006;41.828;23.478;2022-10-16T03:29:08;0.30;;;0.30;;
9934;SDS011;5006;41.828;23.478;2022-10-16T03:30:13;0.28;;;0.28;;
9934;SDS011;5006;41.828;23.478;2022-10-16T03:31:21;3.40;;;0.73;;
9934;SDS011;5006;41.828;23.478;2022-10-16T03:32:27;1.30;;;0.88;;
9934;SDS011;5006;41.828;23.478;2022-10-16T03:33:33;0.40;;;0.40;;
9934;SDS011;5006;41.828;23.478;2022-10-16T03:34:38;0.40;;;0.40;;
9934;SDS011;5006;41.828;23.478;2022-10-16T03:35:50;0.73;;;0.70;;
9934;SDS011;5006;41.828;23.478;2022-10-16T03:36:55;0.38;;;0.38;;
9934;SDS011;5006;41.828;23.478;2022-10-16T03:38:01;1.00;;;0.88;;
9934;SDS011;5006;41.828;23.478;2022-10-16T03:39:05;0.43;;;0.43;;
9934;SDS011;5006;41.828;23.478;2022-10-16T03:40:13;0.73;;;0.73;;
9934;SDS011;5006;41.828;23.478;2022-10-16T03:41:19;0.20;;;0.20;;
9934;SDS011;5006;41.828;23.478;2022-10-16T03:42:23;0.20;;;0.20;;
9934;SDS011;5006;41.828;23.478;2022-10-16T03:43:29;0.50;;;0.50;;
9934;SDS011;5006;41.828;23.478;2022-10-16T03:44:34;0.20;;;0.20;;
9934;SDS011;5006;41.828;23.478;2022-10-16T03:45:40;0.20;;;0.20;;
9934;SDS011;5006;41.828;23.478;2022-10-16T03:46:46;0.20;;;0.20;;
9934;SDS011;5006;41.828;23.478;2022-10-16T03:47:52;0.20;;;0.20;;
9934;SDS011;5006;41.828;23.478;2022-10-16T03:48:56;0.20;;;0.20;;
9934;SDS011;5006;41.828;23.478;2022-10-16T03:50:02;0.20;;;0.20;;
9934;SDS011;5006;41.828;23.478;2022-10-16T03:51:07;0.20;;;0.20;;
9934;SDS011;5006;41.828;23.478;2022-10-16T03:52:13;0.82;;;0.82;;
9934;SDS011;5006;41.828;23.478;2022-10-16T03:53:18;0.22;;;0.22;;
9934;SDS011;5006;41.828;23.478;2022-10-16T03:54:24;0.10;;;0.10;;
9934;SDS011;5006;41.828;23.478;2022-10-16T03:55:29;0.63;;;0.63;;
9934;SDS011;5006;41.828;23.478;2022-10-16T03:56:34;0.20;;;0.20;;
9934;SDS011;5006;41.828;23.478;2022-10-16T03:57:39;0.20;;;0.20;;
9934;SDS011;5006;41.828;23.478;2022-10-16T03:58:45;0.20;;;0.20;;
9934;SDS011;5006;41.828;23.478;2022-10-16T03:59:50;0.20;;;0.20;;
9934;SDS011;5006;41.828;23.478;2022-10-16T04:00:55;0.20;;;0.20;;
9934;SDS011;5006;41.828;23.478;2022-10-16T04:02:02;0.20;;;0.20;;
9934;SDS011;5006;41.828;23.478;2022-10-16T04:03:07;0.22;;;0.22;;
9934;SDS011;5006;41.828;23.478;2022-10-16T04:04:12;0.20;;;0.20;;
9934;SDS011;5006;41.828;23.478;2022-10-16T04:05:18;0.10;;;0.10;;
9934;SDS011;5006;41.828;23.478;2022-10-16T04:06:24;0.30;;;0.30;;
9934;SDS011;5006;41.828;23.478;2022-10-16T04:07:29;0.20;;;0.20;;
9934;SDS011;5006;41.828;23.478;2022-10-16T04:08:34;0.20;;;0.20;;
9934;SDS011;5006;41.828;23.478;2022-10-16T04:09:40;0.20;;;0.20;;
9934;SDS011;5006;41.828;23.478;2022-10-16T04:10:46;0.30;;;0.30;;
9934;SDS011;5006;41.828;23.478;2022-10-16T04:11:51;0.77;;;0.77;;
9934;SDS011;5006;41.828;23.478;2022-10-16T04:12:57;0.40;;;0.40;;
9934;SDS011;5006;41.828;23.478;2022-10-16T04:14:02;0.10;;;0.10;;
9934;SDS011;5006;41.828;23.478;2022-10-16T04:15:08;1.55;;;0.32;;
9934;SDS011;5006;41.828;23.478;2022-10-16T04:16:13;0.30;;;0.30;;
9934;SDS011;5006;41.828;23.478;2022-10-16T04:17:21;0.47;;;0.40;;
9934;SDS011;5006;41.828;23.478;2022-10-16T04:18:25;0.20;;;0.20;;
9934;SDS011;5006;41.828;23.478;2022-10-16T04:19:31;0.30;;;0.30;;
9934;SDS011;5006;41.828;23.478;2022-10-16T04:20:36;0.20;;;0.20;;
9934;SDS011;5006;41.828;23.478;2022-10-16T04:21:42;0.60;;;0.60;;
9934;SDS011;5006;41.828;23.478;2022-10-16T04:22:46;0.40;;;0.40;;
9934;SDS011;5006;41.828;23.478;2022-10-16T04:23:52;0.20;;;0.20;;
9934;SDS011;5006;41.828;23.478;2022-10-16T04:24:56;0.20;;;0.20;;
9934;SDS011;5006;41.828;23.478;2022-10-16T04:26:02;0.20;;;0.20;;
9934;SDS011;5006;41.828;23.478;2022-10-16T04:27:08;0.20;;;0.20;;
9934;SDS011;5006;41.828;23.478;2022-10-16T04:28:13;0.30;;;0.30;;
9934;SDS011;5006;41.828;23.478;2022-10-16T04:29:19;0.20;;;0.20;;
9934;SDS011;5006;41.828;23.478;2022-10-16T04:30:24;0.20;;;0.20;;
9934;SDS011;5006;41.828;23.478;2022-10-16T04:31:30;0.20;;;0.20;;
9934;SDS011;5006;41.828;23.478;2022-10-16T04:32:36;0.20;;;0.20;;
9934;SDS011;5006;41.828;23.478;2022-10-16T04:33:42;0.20;;;0.20;;
9934;SDS011;5006;41.828;23.478;2022-10-16T04:34:46;0.30;;;0.30;;
9934;SDS011;5006;41.828;23.478;2022-10-16T04:35:56;0.30;;;0.30;;
9934;SDS011;5006;41.828;23.478;2022-10-16T04:37:01;0.30;;;0.30;;
9934;SDS011;5006;41.828;23.478;2022-10-16T04:38:06;0.20;;;0.20;;
9934;SDS011;5006;41.828;23.478;2022-10-16T04:39:11;0.20;;;0.20;;
9934;SDS011;5006;41.828;23.478;2022-10-16T04:40:17;0.30;;;0.30;;
9934;SDS011;5006;41.828;23.478;2022-10-16T04:41:21;0.30;;;0.30;;
9934;SDS011;5006;41.828;23.478;2022-10-16T04:42:27;0.20;;;0.20;;
9934;SDS011;5006;41.828;23.478;2022-10-16T04:43:32;0.60;;;0.60;;
9934;SDS011;5006;41.828;23.478;2022-10-16T04:44:38;0.20;;;0.20;;
9934;SDS011;5006;41.828;23.478;2022-10-16T04:45:43;0.40;;;0.40;;
9934;SDS011;5006;41.828;23.478;2022-10-16T04:46:49;0.20;;;0.20;;
9934;SDS011;5006;41.828;23.478;2022-10-16T04:47:57;0.20;;;0.20;;
9934;SDS011;5006;41.828;23.478;2022-10-16T04:49:04;0.30;;;0.30;;
9934;SDS011;5006;41.828;23.478;2022-10-16T04:50:08;0.75;;;0.75;;
9934;SDS011;5006;41.828;23.478;2022-10-16T04:51:14;0.20;;;0.20;;
9934;SDS011;5006;41.828;23.478;2022-10-16T04:52:19;0.30;;;0.30;;
9934;SDS011;5006;41.828;23.478;2022-10-16T04:53:25;0.30;;;0.30;;
9934;SDS011;5006;41.828;23.478;2022-10-16T04:54:31;0.35;;;0.35;;
9934;SDS011;5006;41.828;23.478;2022-10-16T04:55:37;0.85;;;0.85;;
9934;SDS011;5006;41.828;23.478;2022-10-16T04:56:42;0.20;;;0.20;;
9934;SDS011;5006;41.828;23.478;2022-10-16T04:57:51;0.20;;;0.20;;
9934;SDS011;5006;41.828;23.478;2022-10-16T04:58:55;0.20;;;0.20;;
9934;SDS011;5006;41.828;23.478;2022-10-16T05:00:01;0.20;;;0.20;;
9934;SDS011;5006;41.828;23.478;2022-10-16T05:01:08;0.10;;;0.10;;
9934;SDS011;5006;41.828;23.478;2022-10-16T05:02:14;0.10;;;0.10;;
9934;SDS011;5006;41.828;23.478;2022-10-16T05:03:20;0.15;;;0.15;;
9934;SDS011;5006;41.828;23.478;2022-10-16T05:04:26;0.10;;;0.10;;
9934;SDS011;5006;41.828;23.478;2022-10-16T05:05:31;0.10;;;0.10;;
9934;SDS011;5006;41.828;23.478;2022-10-16T05:06:37;0.22;;;0.22;;
9934;SDS011;5006;41.828;23.478;2022-10-16T05:07:42;0.28;;;0.28;;
9934;SDS011;5006;41.828;23.478;2022-10-16T05:08:48;0.20;;;0.20;;
9934;SDS011;5006;41.828;23.478;2022-10-16T05:09:53;2.55;;;1.42;;
9934;SDS011;5006;41.828;23.478;2022-10-16T05:10:59;2.58;;;2.40;;
9934;SDS011;5006;41.828;23.478;2022-10-16T05:12:04;0.20;;;0.20;;
9934;SDS011;5006;41.828;23.478;2022-10-16T05:13:10;0.22;;;0.22;;
9934;SDS011;5006;41.828;23.478;2022-10-16T05:14:15;0.57;;;0.57;;
9934;SDS011;5006;41.828;23.478;2022-10-16T05:15:21;0.20;;;0.20;;
9934;SDS011;5006;41.828;23.478;2022-10-16T05:16:28;0.55;;;0.55;;
9934;SDS011;5006;41.828;23.478;2022-10-16T05:17:35;0.20;;;0.20;;
9934;SDS011;5006;41.828;23.478;2022-10-16T05:18:41;0.20;;;0.20;;
9934;SDS011;5006;41.828;23.478;2022-10-16T05:19:47;0.20;;;0.20;;
9934;SDS011;5006;41.828;23.478;2022-10-16T05:20:52;0.30;;;0.30;;
9934;SDS011;5006;41.828;23.478;2022-10-16T05:21:58;0.20;;;0.20;;
9934;SDS011;5006;41.828;23.478;2022-10-16T05:23:03;0.17;;;0.17;;
9934;SDS011;5006;41.828;23.478;2022-10-16T05:24:08;0.20;;;0.20;;
9934;SDS011;5006;41.828;23.478;2022-10-16T05:25:13;0.82;;;0.82;;
9934;SDS011;5006;41.828;23.478;2022-10-16T05:26:19;0.13;;;0.13;;
9934;SDS011;5006;41.828;23.478;2022-10-16T05:27:24;0.20;;;0.20;;
9934;SDS011;5006;41.828;23.478;2022-10-16T05:28:30;0.20;;;0.20;;
9934;SDS011;5006;41.828;23.478;2022-10-16T05:29:36;0.17;;;0.17;;
9934;SDS011;5006;41.828;23.478;2022-10-16T05:30:42;0.20;;;0.20;;
9934;SDS011;5006;41.828;23.478;2022-10-16T05:31:49;0.20;;;0.20;;
9934;SDS011;5006;41.828;23.478;2022-10-16T05:32:55;0.40;;;0.40;;
9934;SDS011;5006;41.828;23.478;2022-10-16T05:34:01;0.10;;;0.10;;
9934;SDS011;5006;41.828;23.478;2022-10-16T05:35:07;0.63;;;0.63;;
9934;SDS011;5006;41.828;23.478;2022-10-16T05:36:12;0.20;;;0.20;;
9934;SDS011;5006;41.828;23.478;2022-10-16T05:37:18;0.20;;;0.20;;
9934;SDS011;5006;41.828;23.478;2022-10-16T05:38:22;0.20;;;0.20;;
9934;SDS011;5006;41.828;23.478;2022-10-16T05:39:28;0.32;;;0.32;;
9934;SDS011;5006;41.828;23.478;2022-10-16T05:40:33;0.20;;;0.20;;
9934;SDS011;5006;41.828;23.478;2022-10-16T05:41:39;0.38;;;0.38;;
9934;SDS011;5006;41.828;23.478;2022-10-16T05:42:44;0.13;;;0.13;;
9934;SDS011;5006;41.828;23.478;2022-10-16T05:43:49;0.30;;;0.30;;
9934;SDS011;5006;41.828;23.478;2022-10-16T05:44:54;0.20;;;0.20;;
9934;SDS011;5006;41.828;23.478;2022-10-16T05:46:01;0.63;;;0.63;;
9934;SDS011;5006;41.828;23.478;2022-10-16T05:47:09;0.20;;;0.20;;
9934;SDS011;5006;41.828;23.478;2022-10-16T05:48:14;0.98;;;0.98;;
9934;SDS011;5006;41.828;23.478;2022-10-16T05:49:21;6.93;;;2.30;;
9934;SDS011;5006;41.828;23.478;2022-10-16T05:50:27;5.35;;;2.60;;
9934;SDS011;5006;41.828;23.478;2022-10-16T05:51:31;19.92;;;5.80;;
9934;SDS011;5006;41.828;23.478;2022-10-16T05:52:37;14.48;;;8.90;;
9934;SDS011;5006;41.828;23.478;2022-10-16T05:53:42;6.55;;;4.45;;
9934;SDS011;5006;41.828;23.478;2022-10-16T05:54:47;8.90;;;3.47;;
9934;SDS011;5006;41.828;23.478;2022-10-16T05:55:52;3.22;;;3.03;;
9934;SDS011;5006;41.828;23.478;2022-10-16T05:56:58;18.08;;;3.35;;
9934;SDS011;5006;41.828;23.478;2022-10-16T05:58:03;7.25;;;6.22;;
9934;SDS011;5006;41.828;23.478;2022-10-16T05:59:08;7.50;;;6.53;;
9934;SDS011;5006;41.828;23.478;2022-10-16T06:00:14;9.07;;;7.45;;
9934;SDS011;5006;41.828;23.478;2022-10-16T06:01:19;4.68;;;3.95;;
9934;SDS011;5006;41.828;23.478;2022-10-16T06:02:27;4.95;;;4.53;;
9934;SDS011;5006;41.828;23.478;2022-10-16T06:03:32;4.63;;;3.70;;
9934;SDS011;5006;41.828;23.478;2022-10-16T06:04:58;15.13;;;5.35;;
9934;SDS011;5006;41.828;23.478;2022-10-16T06:06:07;1.88;;;1.77;;
9934;SDS011;5006;41.828;23.478;2022-10-16T06:07:13;0.60;;;0.60;;
9934;SDS011;5006;41.828;23.478;2022-10-16T06:08:18;1.45;;;1.40;;
9934;SDS011;5006;41.828;23.478;2022-10-16T06:09:25;3.40;;;2.25;;
9934;SDS011;5006;41.828;23.478;2022-10-16T06:10:29;4.05;;;3.67;;
9934;SDS011;5006;41.828;23.478;2022-10-16T06:11:35;9.48;;;4.97;;
9934;SDS011;5006;41.828;23.478;2022-10-16T06:12:40;28.52;;;21.45;;
9934;SDS011;5006;41.828;23.478;2022-10-16T06:13:48;2.75;;;2.58;;
9934;SDS011;5006;41.828;23.478;2022-10-16T06:14:54;24.65;;;3.72;;
9934;SDS011;5006;41.828;23.478;2022-10-16T06:16:00;7.50;;;6.60;;
9934;SDS011;5006;41.828;23.478;2022-10-16T06:17:05;12.25;;;4.75;;
9934;SDS011;5006;41.828;23.478;2022-10-16T06:18:10;7.07;;;2.65;;
9934;SDS011;5006;41.828;23.478;2022-10-16T06:19:15;9.30;;;6.25;;
9934;SDS011;5006;41.828;23.478;2022-10-16T06:20:23;2.90;;;2.70;;
9934;SDS011;5006;41.828;23.478;2022-10-16T06:21:28;4.63;;;4.25;;
9934;SDS011;5006;41.828;23.478;2022-10-16T06:22:34;4.60;;;3.55;;
9934;SDS011;5006;41.828;23.478;2022-10-16T06:23:39;6.75;;;5.93;;
9934;SDS011;5006;41.828;23.478;2022-10-16T06:24:46;7.28;;;3.35;;
9934;SDS011;5006;41.828;23.478;2022-10-16T06:25:51;14.32;;;5.50;;
9934;SDS011;5006;41.828;23.478;2022-10-16T06:26:57;5.82;;;4.43;;
9934;SDS011;5006;41.828;23.478;2022-10-16T06:28:03;6.75;;;4.35;;
9934;SDS011;5006;41.828;23.478;2022-10-16T06:29:07;2.95;;;2.75;;
9934;SDS011;5006;41.828;23.478;2022-10-16T06:30:13;19.77;;;11.27;;
9934;SDS011;5006;41.828;23.478;2022-10-16T06:31:18;25.33;;;12.95;;
9934;SDS011;5006;41.828;23.478;2022-10-16T06:32:23;5.68;;;4.78;;
9934;SDS011;5006;41.828;23.478;2022-10-16T06:33:28;6.53;;;4.53;;
9934;SDS011;5006;41.828;23.478;2022-10-16T06:34:34;4.88;;;4.57;;
9934;SDS011;5006;41.828;23.478;2022-10-16T06:35:39;2.92;;;2.28;;
9934;SDS011;5006;41.828;23.478;2022-10-16T06:36:45;2.35;;;2.00;;
9934;SDS011;5006;41.828;23.478;2022-10-16T06:37:52;1.17;;;1.17;;
9934;SDS011;5006;41.828;23.478;2022-10-16T06:38:57;18.83;;;8.95;;
9934;SDS011;5006;41.828;23.478;2022-10-16T06:40:03;3.92;;;3.53;;
9934;SDS011;5006;41.828;23.478;2022-10-16T06:41:09;1.80;;;1.73;;
9934;SDS011;5006;41.828;23.478;2022-10-16T06:42:17;1.17;;;1.17;;
9934;SDS011;5006;41.828;23.478;2022-10-16T06:43:22;0.77;;;0.77;;
9934;SDS011;5006;41.828;23.478;2022-10-16T06:44:28;9.18;;;4.65;;
9934;SDS011;5006;41.828;23.478;2022-10-16T06:45:34;4.43;;;2.60;;
9934;SDS011;5006;41.828;23.478;2022-10-16T06:46:39;0.70;;;0.70;;
9934;SDS011;5006;41.828;23.478;2022-10-16T06:47:45;3.45;;;2.72;;
9934;SDS011;5006;41.828;23.478;2022-10-16T06:48:49;1.95;;;1.85;;
9934;SDS011;5006;41.828;23.478;2022-10-16T06:49:55;7.70;;;1.67;;
9934;SDS011;5006;41.828;23.478;2022-10-16T06:51:02;8.07;;;2.88;;
9934;SDS011;5006;41.828;23.478;2022-10-16T06:52:09;3.15;;;2.95;;